createdAt,value
2019-02-16T00:00:09.986Z,1026.11
2019-02-16T00:01:10.843Z,1026.13
2019-02-16T00:02:10.433Z,1026.05
2019-02-16T00:03:09.971Z,1026.09
2019-02-16T00:04:09.833Z,1026.09
2019-02-16T00:05:09.819Z,1026.04
2019-02-16T00:06:09.760Z,1026.03
2019-02-16T00:07:09.751Z,1026.04
2019-02-16T00:08:10.244Z,1026.05
2019-02-16T00:09:09.651Z,1026.04
2019-02-16T00:10:09.620Z,1026.02
2019-02-16T00:11:09.577Z,1025.99
2019-02-16T00:12:09.568Z,1025.99
2019-02-16T00:13:09.514Z,1025.96
2019-02-16T00:14:09.495Z,1025.95
2019-02-16T00:15:09.441Z,1025.97
2019-02-16T00:16:09.404Z,1025.94
2019-02-16T00:17:09.386Z,1025.98
2019-02-16T00:18:09.328Z,1025.93
2019-02-16T00:19:09.295Z,1025.95
2019-02-16T00:20:09.259Z,1025.92
2019-02-16T00:21:09.226Z,1025.86
2019-02-16T00:22:09.285Z,1025.89
2019-02-16T00:23:09.153Z,1025.85
2019-02-16T00:24:09.746Z,1025.86
2019-02-16T00:25:09.081Z,1025.84
2019-02-16T00:26:09.041Z,1025.84
2019-02-16T00:27:09.279Z,1025.85
2019-02-16T00:28:08.975Z,1025.85
2019-02-16T00:29:08.934Z,1025.87
2019-02-16T00:30:08.902Z,1025.85
2019-02-16T00:31:08.873Z,1025.83
2019-02-16T00:32:08.856Z,1025.84
2019-02-16T00:33:08.800Z,1025.83
2019-02-16T00:34:08.757Z,1025.83
2019-02-16T00:35:08.718Z,1025.78
2019-02-16T00:36:08.688Z,1025.80
2019-02-16T00:37:08.658Z,1025.79
2019-02-16T00:38:08.633Z,1025.77
2019-02-16T00:39:08.580Z,1025.75
2019-02-16T00:40:09.249Z,1025.78
2019-02-16T00:41:08.549Z,1025.72
2019-02-16T00:42:08.463Z,1025.74
2019-02-16T00:43:08.466Z,1025.71
2019-02-16T00:44:08.400Z,1025.70
2019-02-16T00:45:08.357Z,1025.70
2019-02-16T00:46:09.246Z,1025.67
2019-02-16T00:47:08.291Z,1025.67
2019-02-16T00:48:08.274Z,1025.68
2019-02-16T00:49:08.215Z,1025.72
2019-02-16T00:50:08.751Z,1025.70
2019-02-16T00:51:13.455Z,1025.70
2019-02-16T00:52:08.111Z,1025.67
2019-02-16T00:53:08.108Z,1025.67
2019-02-16T00:54:10.748Z,1025.60
2019-02-16T00:55:08.654Z,1025.60
2019-02-16T00:56:08.752Z,1025.59
2019-02-16T00:57:07.927Z,1025.62
2019-02-16T00:58:07.911Z,1025.61
2019-02-16T00:59:07.854Z,1025.58
2019-02-16T01:00:07.822Z,1025.57
2019-02-16T01:01:07.789Z,1025.59
2019-02-16T01:02:07.743Z,1025.53
2019-02-16T01:03:07.734Z,1025.56
2019-02-16T01:04:07.676Z,1025.51
2019-02-16T01:05:07.635Z,1025.49
2019-02-16T01:06:07.626Z,1025.51
2019-02-16T01:07:07.592Z,1025.46
2019-02-16T01:08:07.551Z,1025.46
2019-02-16T01:09:07.490Z,1025.45
2019-02-16T01:10:07.458Z,1025.45
2019-02-16T01:11:07.415Z,1025.42
2019-02-16T01:12:08.246Z,1025.42
2019-02-16T01:13:07.375Z,1025.39
2019-02-16T01:14:08.249Z,1025.42
2019-02-16T01:15:07.275Z,1025.38
2019-02-16T01:16:07.243Z,1025.34
2019-02-16T01:17:07.203Z,1025.39
2019-02-16T01:18:09.091Z,1025.38
2019-02-16T01:19:07.133Z,1025.33
2019-02-16T01:20:07.096Z,1025.31
2019-02-16T01:21:09.155Z,1025.31
2019-02-16T01:22:07.751Z,1025.30
2019-02-16T01:23:07.006Z,1025.29
2019-02-16T01:24:07.753Z,1025.26
2019-02-16T01:25:06.919Z,1025.28
2019-02-16T01:26:07.752Z,1025.21
2019-02-16T01:27:06.840Z,1025.24
2019-02-16T01:28:06.824Z,1025.24
2019-02-16T01:29:06.766Z,1025.25
2019-02-16T01:30:07.253Z,1025.27
2019-02-16T01:31:07.247Z,1025.27
2019-02-16T01:32:07.250Z,1025.26
2019-02-16T01:33:06.791Z,1025.23
2019-02-16T01:34:07.267Z,1025.24
2019-02-16T01:35:09.280Z,1025.23
2019-02-16T01:36:06.513Z,1025.21
2019-02-16T01:37:06.506Z,1025.21
2019-02-16T01:38:06.465Z,1025.23
2019-02-16T01:39:06.446Z,1025.20
2019-02-16T01:40:06.437Z,1025.20
2019-02-16T01:41:07.277Z,1025.16
2019-02-16T01:42:07.321Z,1025.14
2019-02-16T01:43:10.658Z,1025.12
2019-02-16T01:44:06.764Z,1025.12
2019-02-16T01:45:06.183Z,1025.11
2019-02-16T01:46:06.752Z,1025.10
2019-02-16T01:47:06.130Z,1025.12
2019-02-16T01:48:06.108Z,1025.08
2019-02-16T01:49:06.039Z,1025.06
2019-02-16T01:50:06.757Z,1025.06
2019-02-16T01:51:06.757Z,1025.03
2019-02-16T01:52:06.751Z,1025.03
2019-02-16T01:53:05.949Z,1025.04
2019-02-16T01:54:05.856Z,1025.01
2019-02-16T01:55:05.819Z,1025.01
2019-02-16T01:56:06.766Z,1025.00
2019-02-16T01:57:06.251Z,1025.00
2019-02-16T01:58:05.713Z,1025.01
2019-02-16T01:59:05.698Z,1025.00
2019-02-16T02:00:05.642Z,1024.99
2019-02-16T02:01:05.603Z,1025.00
2019-02-16T02:02:06.318Z,1025.00
2019-02-16T02:03:06.252Z,1024.96
2019-02-16T02:04:05.784Z,1024.95
2019-02-16T02:05:06.251Z,1024.94
2019-02-16T02:06:06.251Z,1024.95
2019-02-16T02:07:05.382Z,1024.92
2019-02-16T02:08:05.349Z,1024.94
2019-02-16T02:09:05.342Z,1024.89
2019-02-16T02:10:05.277Z,1024.94
2019-02-16T02:11:05.751Z,1024.92
2019-02-16T02:12:05.210Z,1024.89
2019-02-16T02:13:05.760Z,1024.88
2019-02-16T02:14:05.787Z,1024.87
2019-02-16T02:15:05.093Z,1024.87
2019-02-16T02:16:05.057Z,1024.88
2019-02-16T02:17:05.753Z,1024.85
2019-02-16T02:18:05.005Z,1024.84
2019-02-16T02:19:04.979Z,1024.84
2019-02-16T02:20:04.910Z,1024.84
2019-02-16T02:21:04.878Z,1024.80
2019-02-16T02:22:05.754Z,1024.82
2019-02-16T02:23:04.804Z,1024.78
2019-02-16T02:24:04.788Z,1024.82
2019-02-16T02:25:05.253Z,1024.80
2019-02-16T02:26:04.698Z,1024.82
2019-02-16T02:27:04.823Z,1024.84
2019-02-16T02:28:05.252Z,1024.77
2019-02-16T02:29:04.607Z,1024.78
2019-02-16T02:30:05.253Z,1024.80
2019-02-16T02:31:05.254Z,1024.73
2019-02-16T02:32:04.481Z,1024.74
2019-02-16T02:33:05.254Z,1024.74
2019-02-16T02:34:04.803Z,1024.72
2019-02-16T02:35:05.261Z,1024.72
2019-02-16T02:36:05.255Z,1024.72
2019-02-16T02:37:05.255Z,1024.72
2019-02-16T02:38:04.265Z,1024.72
2019-02-16T02:39:04.244Z,1024.73
2019-02-16T02:40:04.332Z,1024.71
2019-02-16T02:41:04.756Z,1024.69
2019-02-16T02:42:04.140Z,1024.69
2019-02-16T02:43:04.867Z,1024.67
2019-02-16T02:44:04.063Z,1024.66
2019-02-16T02:45:04.766Z,1024.68
2019-02-16T02:46:04.758Z,1024.71
2019-02-16T02:47:03.930Z,1024.70
2019-02-16T02:48:04.763Z,1024.65
2019-02-16T02:49:04.290Z,1024.66
2019-02-16T02:50:04.790Z,1024.62
2019-02-16T02:51:03.782Z,1024.62
2019-02-16T02:52:04.265Z,1024.56
2019-02-16T02:53:04.262Z,1024.54
2019-02-16T02:54:04.288Z,1024.52
2019-02-16T02:55:03.641Z,1024.52
2019-02-16T02:56:05.161Z,1024.50
2019-02-16T02:57:04.253Z,1024.51
2019-02-16T02:58:04.257Z,1024.54
2019-02-16T02:59:03.518Z,1024.50
2019-02-16T03:00:03.455Z,1024.51
2019-02-16T03:01:03.422Z,1024.48
2019-02-16T03:02:03.386Z,1024.50
2019-02-16T03:03:04.256Z,1024.49
2019-02-16T03:04:03.332Z,1024.49
2019-02-16T03:05:03.271Z,1024.49
2019-02-16T03:06:03.238Z,1024.48
2019-02-16T03:07:03.205Z,1024.50
2019-02-16T03:08:03.758Z,1024.49
2019-02-16T03:09:03.401Z,1024.47
2019-02-16T03:10:03.757Z,1024.46
2019-02-16T03:11:03.052Z,1024.48
2019-02-16T03:12:03.757Z,1024.47
2019-02-16T03:13:02.985Z,1024.47
2019-02-16T03:14:02.947Z,1024.45
2019-02-16T03:15:03.294Z,1024.46
2019-02-16T03:16:02.874Z,1024.41
2019-02-16T03:17:02.836Z,1024.40
2019-02-16T03:18:02.805Z,1024.42
2019-02-16T03:19:02.898Z,1024.39
2019-02-16T03:20:02.815Z,1024.41
2019-02-16T03:21:02.685Z,1024.43
2019-02-16T03:22:03.490Z,1024.39
2019-02-16T03:23:03.258Z,1024.36
2019-02-16T03:24:03.255Z,1024.35
2019-02-16T03:25:02.789Z,1024.38
2019-02-16T03:26:02.506Z,1024.39
2019-02-16T03:27:03.279Z,1024.38
2019-02-16T03:28:02.431Z,1024.38
2019-02-16T03:29:02.402Z,1024.39
2019-02-16T03:30:02.380Z,1024.41
2019-02-16T03:31:03.263Z,1024.44
2019-02-16T03:32:03.265Z,1024.44
2019-02-16T03:33:02.759Z,1024.44
2019-02-16T03:34:04.778Z,1024.46
2019-02-16T03:35:02.289Z,1024.41
2019-02-16T03:36:02.759Z,1024.38
2019-02-16T03:37:02.098Z,1024.39
2019-02-16T03:38:02.760Z,1024.38
2019-02-16T03:39:02.756Z,1024.38
2019-02-16T03:40:02.030Z,1024.34
2019-02-16T03:41:02.298Z,1024.34
2019-02-16T03:42:01.916Z,1024.31
2019-02-16T03:43:02.766Z,1024.38
2019-02-16T03:44:02.760Z,1024.37
2019-02-16T03:45:01.804Z,1024.34
2019-02-16T03:46:01.791Z,1024.36
2019-02-16T03:47:01.729Z,1024.34
2019-02-16T03:48:02.265Z,1024.35
2019-02-16T03:49:02.263Z,1024.34
2019-02-16T03:50:02.257Z,1024.34
2019-02-16T03:51:01.607Z,1024.34
2019-02-16T03:52:01.553Z,1024.37
2019-02-16T03:53:02.258Z,1024.32
2019-02-16T03:54:02.257Z,1024.33
2019-02-16T03:55:01.439Z,1024.31
2019-02-16T03:56:01.426Z,1024.30
2019-02-16T03:57:02.261Z,1024.30
2019-02-16T03:58:01.449Z,1024.25
2019-02-16T03:59:01.291Z,1024.28
2019-02-16T04:00:01.256Z,1024.25
2019-02-16T04:01:01.234Z,1024.21
2019-02-16T04:02:01.177Z,1024.22
2019-02-16T04:03:01.139Z,1024.21
2019-02-16T04:04:01.758Z,1024.20
2019-02-16T04:05:01.757Z,1024.19
2019-02-16T04:06:01.054Z,1024.17
2019-02-16T04:07:01.002Z,1024.17
2019-02-16T04:08:00.960Z,1024.20
2019-02-16T04:09:01.759Z,1024.16
2019-02-16T04:10:01.767Z,1024.17
2019-02-16T04:11:02.165Z,1024.13
2019-02-16T04:12:01.907Z,1024.14
2019-02-16T04:13:00.778Z,1024.12
2019-02-16T04:14:00.749Z,1024.09
2019-02-16T04:15:00.698Z,1024.10
2019-02-16T04:16:00.799Z,1024.12
2019-02-16T04:17:00.701Z,1024.11
2019-02-16T04:18:01.258Z,1024.07
2019-02-16T04:19:00.555Z,1024.10
2019-02-16T04:20:00.525Z,1024.09
2019-02-16T04:21:00.509Z,1024.05
2019-02-16T04:22:00.444Z,1024.08
2019-02-16T04:23:01.259Z,1024.07
2019-02-16T04:24:01.268Z,1024.05
2019-02-16T04:25:00.417Z,1024.01
2019-02-16T04:26:00.331Z,1023.99
2019-02-16T04:27:00.263Z,1024.01
2019-02-16T04:28:00.225Z,1023.99
2019-02-16T04:29:00.218Z,1023.98
2019-02-16T04:30:00.767Z,1023.95
2019-02-16T04:31:00.154Z,1023.92
2019-02-16T04:32:00.079Z,1023.92
2019-02-16T04:33:00.057Z,1023.94
2019-02-16T04:34:00.011Z,1023.94
2019-02-16T04:34:59.975Z,1023.90
2019-02-16T04:36:00.762Z,1023.83
2019-02-16T04:36:59.919Z,1023.86
2019-02-16T04:38:00.776Z,1023.84
2019-02-16T04:38:59.820Z,1023.85
2019-02-16T04:39:59.789Z,1023.91
2019-02-16T04:40:59.747Z,1023.86
2019-02-16T04:41:59.792Z,1023.85
2019-02-16T04:43:00.262Z,1023.85
2019-02-16T04:44:00.259Z,1023.86
2019-02-16T04:44:59.599Z,1023.85
2019-02-16T04:45:59.566Z,1023.88
2019-02-16T04:46:59.800Z,1023.92
2019-02-16T04:48:00.260Z,1023.84
2019-02-16T04:48:59.464Z,1023.84
2019-02-16T04:49:59.471Z,1023.84
2019-02-16T04:51:00.261Z,1023.84
2019-02-16T04:51:59.368Z,1023.83
2019-02-16T04:53:01.167Z,1023.86
2019-02-16T04:54:00.275Z,1023.83
2019-02-16T04:54:59.235Z,1023.80
2019-02-16T04:55:59.200Z,1023.80
2019-02-16T04:56:59.198Z,1023.76
2019-02-16T04:57:59.133Z,1023.79
2019-02-16T04:58:59.093Z,1023.75
2019-02-16T04:59:59.054Z,1023.75
2019-02-16T05:00:59.760Z,1023.75
2019-02-16T05:01:58.999Z,1023.72
2019-02-16T05:02:59.763Z,1023.71
2019-02-16T05:03:58.908Z,1023.71
2019-02-16T05:04:58.871Z,1023.70
2019-02-16T05:05:59.876Z,1023.75
2019-02-16T05:06:58.819Z,1023.71
2019-02-16T05:07:58.763Z,1023.68
2019-02-16T05:08:58.722Z,1023.64
2019-02-16T05:09:59.268Z,1023.64
2019-02-16T05:10:58.661Z,1023.61
2019-02-16T05:11:58.636Z,1023.56
2019-02-16T05:12:59.261Z,1023.54
2019-02-16T05:13:58.591Z,1023.59
2019-02-16T05:14:58.507Z,1023.55
2019-02-16T05:15:58.481Z,1023.55
2019-02-16T05:16:58.459Z,1023.54
2019-02-16T05:17:58.394Z,1023.53
2019-02-16T05:18:58.362Z,1023.50
2019-02-16T05:19:58.352Z,1023.50
2019-02-16T05:20:58.286Z,1023.55
2019-02-16T05:21:58.272Z,1023.57
2019-02-16T05:22:58.764Z,1023.51
2019-02-16T05:23:58.250Z,1023.50
2019-02-16T05:24:58.768Z,1023.48
2019-02-16T05:25:58.422Z,1023.51
2019-02-16T05:26:58.088Z,1023.46
2019-02-16T05:27:58.762Z,1023.44
2019-02-16T05:28:57.998Z,1023.46
2019-02-16T05:30:00.767Z,1023.47
2019-02-16T05:30:58.005Z,1023.48
2019-02-16T05:31:57.907Z,1023.51
2019-02-16T05:32:57.845Z,1023.53
2019-02-16T05:33:58.766Z,1023.54
2019-02-16T05:34:57.775Z,1023.49
2019-02-16T05:35:58.268Z,1023.45
2019-02-16T05:36:57.700Z,1023.46
2019-02-16T05:37:57.686Z,1023.44
2019-02-16T05:38:58.279Z,1023.44
2019-02-16T05:39:57.590Z,1023.42
2019-02-16T05:40:57.557Z,1023.44
2019-02-16T05:41:57.517Z,1023.45
2019-02-16T05:42:57.792Z,1023.43
2019-02-16T05:43:57.445Z,1023.44
2019-02-16T05:44:57.409Z,1023.40
2019-02-16T05:45:57.370Z,1023.43
2019-02-16T05:46:57.347Z,1023.43
2019-02-16T05:47:57.797Z,1023.42
2019-02-16T05:48:57.268Z,1023.43
2019-02-16T05:49:57.241Z,1023.41
2019-02-16T05:50:57.196Z,1023.40
2019-02-16T05:51:57.157Z,1023.42
2019-02-16T05:52:57.143Z,1023.41
2019-02-16T05:53:57.213Z,1023.47
2019-02-16T05:54:57.060Z,1023.48
2019-02-16T05:55:57.008Z,1023.48
2019-02-16T05:56:57.767Z,1023.47
2019-02-16T05:57:56.956Z,1023.46
2019-02-16T05:58:56.900Z,1023.50
2019-02-16T05:59:56.863Z,1023.49
2019-02-16T06:00:56.828Z,1023.45
2019-02-16T06:01:56.785Z,1023.47
2019-02-16T06:02:56.780Z,1023.48
2019-02-16T06:03:56.715Z,1023.51
2019-02-16T06:04:56.680Z,1023.49
2019-02-16T06:05:56.642Z,1023.47
2019-02-16T06:06:56.606Z,1023.48
2019-02-16T06:07:56.592Z,1023.46
2019-02-16T06:08:56.561Z,1023.46
2019-02-16T06:09:56.515Z,1023.36
2019-02-16T06:10:56.460Z,1023.43
2019-02-16T06:11:56.462Z,1023.41
2019-02-16T06:12:56.412Z,1023.36
2019-02-16T06:13:56.348Z,1023.35
2019-02-16T06:14:56.310Z,1023.34
2019-02-16T06:15:56.278Z,1023.33
2019-02-16T06:16:56.765Z,1023.29
2019-02-16T06:17:56.247Z,1023.24
2019-02-16T06:18:56.191Z,1023.26
2019-02-16T06:19:56.770Z,1023.28
2019-02-16T06:20:56.111Z,1023.29
2019-02-16T06:21:56.059Z,1023.26
2019-02-16T06:23:03.921Z,1023.24
2019-02-16T06:23:55.981Z,1023.28
2019-02-16T06:24:55.952Z,1023.23
2019-02-16T06:25:56.769Z,1023.29
2019-02-16T06:26:55.872Z,1023.33
2019-02-16T06:27:55.861Z,1023.32
2019-02-16T06:28:56.767Z,1023.32
2019-02-16T06:29:55.767Z,1023.31
2019-02-16T06:30:55.917Z,1023.34
2019-02-16T06:31:55.690Z,1023.31
2019-02-16T06:32:56.673Z,1023.31
2019-02-16T06:33:55.615Z,1023.34
2019-02-16T06:34:55.580Z,1023.36
2019-02-16T06:35:55.548Z,1023.37
2019-02-16T06:36:55.519Z,1023.42
2019-02-16T06:37:55.497Z,1023.44
2019-02-16T06:38:55.432Z,1023.43
2019-02-16T06:39:55.393Z,1023.44
2019-02-16T06:40:55.362Z,1023.38
2019-02-16T06:41:55.321Z,1023.42
2019-02-16T06:42:55.320Z,1023.45
2019-02-16T06:43:55.256Z,1023.46
2019-02-16T06:44:56.174Z,1023.47
2019-02-16T06:45:55.187Z,1023.49
2019-02-16T06:46:55.140Z,1023.52
2019-02-16T06:47:55.129Z,1023.52
2019-02-16T06:48:55.068Z,1023.52
2019-02-16T06:49:55.032Z,1023.52
2019-02-16T06:50:54.995Z,1023.53
2019-02-16T06:51:54.960Z,1023.54
2019-02-16T06:52:54.927Z,1023.57
2019-02-16T06:53:54.910Z,1023.56
2019-02-16T06:54:54.854Z,1023.58
2019-02-16T06:55:54.813Z,1023.55
2019-02-16T06:56:54.776Z,1023.56
2019-02-16T06:57:54.872Z,1023.56
2019-02-16T06:58:54.724Z,1023.55
2019-02-16T06:59:54.666Z,1023.57
2019-02-16T07:00:55.267Z,1023.64
2019-02-16T07:01:55.278Z,1023.58
2019-02-16T07:02:54.557Z,1023.62
2019-02-16T07:03:54.550Z,1023.61
2019-02-16T07:04:54.490Z,1023.53
2019-02-16T07:05:55.272Z,1023.53
2019-02-16T07:06:54.413Z,1023.51
2019-02-16T07:07:54.379Z,1023.57
2019-02-16T07:08:54.803Z,1023.53
2019-02-16T07:09:54.301Z,1023.59
2019-02-16T07:10:55.216Z,1023.59
2019-02-16T07:11:54.236Z,1023.56
2019-02-16T07:12:54.771Z,1023.53
2019-02-16T07:13:54.311Z,1023.57
2019-02-16T07:14:54.773Z,1023.51
2019-02-16T07:15:54.787Z,1023.54
2019-02-16T07:16:54.056Z,1023.55
2019-02-16T07:17:54.040Z,1023.55
2019-02-16T07:18:54.307Z,1023.51
2019-02-16T07:19:53.941Z,1023.56
2019-02-16T07:20:53.907Z,1023.56
2019-02-16T07:21:53.872Z,1023.54
2019-02-16T07:22:53.886Z,1023.49
2019-02-16T07:23:53.861Z,1023.51
2019-02-16T07:24:54.275Z,1023.52
2019-02-16T07:25:53.731Z,1023.50
2019-02-16T07:26:53.687Z,1023.50
2019-02-16T07:27:53.704Z,1023.53
2019-02-16T07:28:53.646Z,1023.49
2019-02-16T07:29:53.584Z,1023.51
2019-02-16T07:30:53.553Z,1023.50
2019-02-16T07:31:53.520Z,1023.45
2019-02-16T07:32:53.475Z,1023.46
2019-02-16T07:33:53.477Z,1023.44
2019-02-16T07:34:53.401Z,1023.43
2019-02-16T07:35:53.368Z,1023.41
2019-02-16T07:36:53.337Z,1023.44
2019-02-16T07:37:53.307Z,1023.45
2019-02-16T07:38:53.300Z,1023.45
2019-02-16T07:39:53.223Z,1023.48
2019-02-16T07:40:53.188Z,1023.42
2019-02-16T07:41:53.158Z,1023.45
2019-02-16T07:42:53.134Z,1023.42
2019-02-16T07:43:53.136Z,1023.45
2019-02-16T07:44:53.053Z,1023.41
2019-02-16T07:45:53.772Z,1023.39
2019-02-16T07:46:52.974Z,1023.42
2019-02-16T07:47:53.778Z,1023.42
2019-02-16T07:48:52.918Z,1023.42
2019-02-16T07:49:53.304Z,1023.43
2019-02-16T07:50:52.837Z,1023.41
2019-02-16T07:51:52.800Z,1023.45
2019-02-16T07:52:53.280Z,1023.43
2019-02-16T07:53:52.730Z,1023.44
2019-02-16T07:54:52.713Z,1023.41
2019-02-16T07:55:52.666Z,1023.41
2019-02-16T07:56:53.277Z,1023.40
2019-02-16T07:57:52.588Z,1023.41
2019-02-16T07:58:52.556Z,1023.39
2019-02-16T07:59:52.810Z,1023.41
2019-02-16T08:00:52.485Z,1023.39
2019-02-16T08:01:52.448Z,1023.38
2019-02-16T08:02:52.413Z,1023.37
2019-02-16T08:03:52.376Z,1023.40
2019-02-16T08:04:52.363Z,1023.42
2019-02-16T08:05:52.316Z,1023.38
2019-02-16T08:06:52.272Z,1023.42
2019-02-16T08:07:52.242Z,1023.42
2019-02-16T08:08:52.204Z,1023.40
2019-02-16T08:09:52.196Z,1023.34
2019-02-16T08:10:52.136Z,1023.35
2019-02-16T08:11:52.105Z,1023.36
2019-02-16T08:12:52.062Z,1023.35
2019-02-16T08:13:52.032Z,1023.34
2019-02-16T08:14:51.996Z,1023.33
2019-02-16T08:15:51.986Z,1023.28
2019-02-16T08:16:51.930Z,1023.31
2019-02-16T08:17:51.893Z,1023.25
2019-02-16T08:18:51.858Z,1023.27
2019-02-16T08:19:51.831Z,1023.29
2019-02-16T08:20:51.811Z,1023.23
2019-02-16T08:21:51.754Z,1023.25
2019-02-16T08:22:52.681Z,1023.28
2019-02-16T08:23:51.689Z,1023.27
2019-02-16T08:24:51.671Z,1023.27
2019-02-16T08:25:51.642Z,1023.28
2019-02-16T08:26:51.595Z,1023.30
2019-02-16T08:27:51.550Z,1023.28
2019-02-16T08:28:51.515Z,1023.27
2019-02-16T08:29:51.482Z,1023.29
2019-02-16T08:30:51.472Z,1023.29
2019-02-16T08:31:51.412Z,1023.27
2019-02-16T08:32:51.379Z,1023.27
2019-02-16T08:33:51.348Z,1023.24
2019-02-16T08:34:51.362Z,1023.25
2019-02-16T08:35:51.300Z,1023.27
2019-02-16T08:36:51.246Z,1023.27
2019-02-16T08:37:51.208Z,1023.27
2019-02-16T08:38:51.176Z,1023.26
2019-02-16T08:39:51.146Z,1023.25
2019-02-16T08:40:51.155Z,1023.23
2019-02-16T08:41:51.075Z,1023.30
2019-02-16T08:42:51.041Z,1023.25
2019-02-16T08:43:51.008Z,1023.29
2019-02-16T08:44:50.975Z,1023.25
2019-02-16T08:45:50.940Z,1023.22
2019-02-16T08:46:50.930Z,1023.21
2019-02-16T08:47:50.872Z,1023.25
2019-02-16T08:48:50.840Z,1023.22
2019-02-16T08:49:50.818Z,1023.25
2019-02-16T08:50:50.776Z,1023.27
2019-02-16T08:51:50.772Z,1023.24
2019-02-16T08:52:50.732Z,1023.26
2019-02-16T08:53:52.184Z,1023.22
2019-02-16T08:54:50.692Z,1023.19
2019-02-16T08:55:50.607Z,1023.18
2019-02-16T08:56:50.594Z,1023.20
2019-02-16T08:57:50.542Z,1023.18
2019-02-16T08:59:50.487Z,1023.19
2019-02-16T09:00:50.445Z,1023.15
2019-02-16T09:01:55.688Z,1023.19
2019-02-16T09:02:50.378Z,1023.18
2019-02-16T09:03:50.346Z,1023.15
2019-02-16T09:04:50.309Z,1023.21
2019-02-16T09:05:50.279Z,1023.11
2019-02-16T09:06:50.244Z,1023.13
2019-02-16T09:07:50.240Z,1023.14
2019-02-16T09:08:50.193Z,1023.12
2019-02-16T09:09:50.173Z,1023.14
2019-02-16T09:10:50.117Z,1023.14
2019-02-16T09:11:50.084Z,1023.13
2019-02-16T09:12:50.081Z,1023.09
2019-02-16T09:13:52.783Z,1023.09
2019-02-16T09:14:49.984Z,1023.16
2019-02-16T09:15:50.782Z,1023.12
2019-02-16T09:16:49.919Z,1023.20
2019-02-16T09:17:49.915Z,1023.20
2019-02-16T09:18:50.785Z,1023.19
2019-02-16T09:19:49.825Z,1023.17
2019-02-16T09:20:49.791Z,1023.20
2019-02-16T09:21:49.765Z,1023.17
2019-02-16T09:22:49.803Z,1023.23
2019-02-16T09:23:58.664Z,1023.19
2019-02-16T09:24:49.662Z,1023.21
2019-02-16T09:25:49.631Z,1023.17
2019-02-16T09:26:49.603Z,1023.18
2019-02-16T09:27:49.576Z,1023.16
2019-02-16T09:28:49.567Z,1023.17
2019-02-16T09:29:49.508Z,1023.16
2019-02-16T09:30:49.470Z,1023.15
2019-02-16T09:31:49.474Z,1023.17
2019-02-16T09:32:49.427Z,1023.17
2019-02-16T09:33:49.400Z,1023.17
2019-02-16T09:34:49.344Z,1023.18
2019-02-16T09:35:49.311Z,1023.18
2019-02-16T09:36:49.282Z,1023.18
2019-02-16T09:37:49.250Z,1023.18
2019-02-16T09:38:49.241Z,1023.15
2019-02-16T09:39:49.187Z,1023.18
2019-02-16T09:40:49.152Z,1023.14
2019-02-16T09:41:49.147Z,1023.10
2019-02-16T09:42:49.088Z,1023.08
2019-02-16T09:43:49.083Z,1023.05
2019-02-16T09:44:49.039Z,1023.06
2019-02-16T09:45:49.782Z,1023.01
2019-02-16T09:46:48.966Z,1023.02
2019-02-16T09:47:48.938Z,1023.07
2019-02-16T09:48:49.691Z,1023.05
2019-02-16T09:49:49.316Z,1023.10
2019-02-16T09:50:48.849Z,1023.06
2019-02-16T09:51:48.856Z,1023.10
2019-02-16T09:52:48.775Z,1023.09
2019-02-16T09:53:48.746Z,1023.13
2019-02-16T09:54:48.739Z,1023.12
2019-02-16T09:55:48.684Z,1023.11
2019-02-16T09:56:48.687Z,1023.10
2019-02-16T09:57:48.623Z,1023.07
2019-02-16T09:58:48.600Z,1023.05
2019-02-16T09:59:48.583Z,1023.02
2019-02-16T10:00:48.527Z,1023.03
2019-02-16T10:01:48.549Z,1023.05
2019-02-16T10:02:48.466Z,1023.05
2019-02-16T10:03:48.441Z,1023.07
2019-02-16T10:04:48.429Z,1023.05
2019-02-16T10:05:48.381Z,1023.04
2019-02-16T10:06:48.346Z,1023.07
2019-02-16T10:07:48.308Z,1023.10
2019-02-16T10:08:48.291Z,1023.09
2019-02-16T10:09:48.278Z,1023.10
2019-02-16T10:10:48.221Z,1023.08
2019-02-16T10:11:48.185Z,1023.08
2019-02-16T10:12:48.159Z,1023.08
2019-02-16T10:13:48.127Z,1023.07
2019-02-16T10:14:48.324Z,1023.07
2019-02-16T10:15:48.063Z,1023.07
2019-02-16T10:16:48.038Z,1023.09
2019-02-16T10:17:48.007Z,1023.06
2019-02-16T10:18:47.973Z,1023.07
2019-02-16T10:19:47.941Z,1023.03
2019-02-16T10:20:47.940Z,1023.07
2019-02-16T10:21:47.880Z,1023.01
2019-02-16T10:22:47.849Z,1022.99
2019-02-16T10:23:47.818Z,1023.01
2019-02-16T10:24:47.837Z,1023.05
2019-02-16T10:25:47.791Z,1023.01
2019-02-16T10:26:47.728Z,1023.00
2019-02-16T10:27:47.710Z,1023.01
2019-02-16T10:28:47.664Z,1023.02
2019-02-16T10:29:47.641Z,1023.02
2019-02-16T10:30:47.652Z,1023.00
2019-02-16T10:31:47.602Z,1022.99
2019-02-16T10:32:47.550Z,1022.99
2019-02-16T10:33:47.516Z,1023.00
2019-02-16T10:34:47.507Z,1023.00
2019-02-16T10:35:47.479Z,1023.00
2019-02-16T10:36:47.430Z,1022.99
2019-02-16T10:37:47.396Z,1022.94
2019-02-16T10:38:47.386Z,1022.96
2019-02-16T10:39:47.335Z,1022.93
2019-02-16T10:40:47.345Z,1022.92
2019-02-16T10:41:47.273Z,1022.93
2019-02-16T10:42:47.242Z,1022.92
2019-02-16T10:43:47.215Z,1022.87
2019-02-16T10:44:47.183Z,1022.88
2019-02-16T10:45:47.152Z,1022.86
2019-02-16T10:46:47.148Z,1022.86
2019-02-16T10:47:47.105Z,1022.78
2019-02-16T10:48:47.072Z,1022.76
2019-02-16T10:49:47.036Z,1022.74
2019-02-16T10:50:47.005Z,1022.73
2019-02-16T10:51:47.007Z,1022.69
2019-02-16T10:52:46.962Z,1022.69
2019-02-16T10:53:46.916Z,1022.69
2019-02-16T10:54:46.886Z,1022.65
2019-02-16T10:55:46.855Z,1022.56
2019-02-16T10:56:46.890Z,1022.58
2019-02-16T10:57:46.795Z,1022.55
2019-02-16T10:58:46.765Z,1022.61
2019-02-16T10:59:46.735Z,1022.59
2019-02-16T11:00:46.710Z,1022.63
2019-02-16T11:01:46.678Z,1022.63
2019-02-16T11:02:46.671Z,1022.64
2019-02-16T11:03:46.620Z,1022.64
2019-02-16T11:04:46.589Z,1022.64
2019-02-16T11:05:46.594Z,1022.66
2019-02-16T11:06:46.562Z,1022.69
2019-02-16T11:07:46.526Z,1022.64
2019-02-16T11:08:46.502Z,1022.69
2019-02-16T11:09:46.441Z,1022.73
2019-02-16T11:10:46.411Z,1022.76
2019-02-16T11:11:46.385Z,1022.74
2019-02-16T11:12:46.378Z,1022.71
2019-02-16T11:13:46.332Z,1022.72
2019-02-16T11:14:46.799Z,1022.72
2019-02-16T11:15:46.810Z,1022.70
2019-02-16T11:16:46.802Z,1022.69
2019-02-16T11:17:46.234Z,1022.72
2019-02-16T11:18:46.191Z,1022.69
2019-02-16T11:19:46.156Z,1022.72
2019-02-16T11:20:46.117Z,1022.72
2019-02-16T11:21:46.088Z,1022.72
2019-02-16T11:22:46.095Z,1022.78
2019-02-16T11:23:46.033Z,1022.81
2019-02-16T11:24:46.009Z,1022.82
2019-02-16T11:25:45.973Z,1022.82
2019-02-16T11:26:45.946Z,1022.81
2019-02-16T11:27:46.349Z,1022.82
2019-02-16T11:28:46.007Z,1022.79
2019-02-16T11:29:45.860Z,1022.80
2019-02-16T11:30:45.830Z,1022.80
2019-02-16T11:31:45.797Z,1022.83
2019-02-16T11:32:46.301Z,1022.82
2019-02-16T11:33:45.770Z,1022.80
2019-02-16T11:34:45.718Z,1022.74
2019-02-16T11:35:45.683Z,1022.75
2019-02-16T11:36:46.309Z,1022.71
2019-02-16T11:37:45.635Z,1022.72
2019-02-16T11:38:45.698Z,1022.70
2019-02-16T11:39:45.567Z,1022.70
2019-02-16T11:40:45.547Z,1022.69
2019-02-16T11:41:46.307Z,1022.70
2019-02-16T11:42:46.348Z,1022.69
2019-02-16T11:43:45.482Z,1022.69
2019-02-16T11:44:45.431Z,1022.68
2019-02-16T11:45:46.308Z,1022.66
2019-02-16T11:46:45.372Z,1022.65
2019-02-16T11:47:45.360Z,1022.64
2019-02-16T11:48:45.530Z,1022.56
2019-02-16T11:49:45.283Z,1022.58
2019-02-16T11:50:45.266Z,1022.57
2019-02-16T11:51:45.230Z,1022.56
2019-02-16T11:52:45.808Z,1022.56
2019-02-16T11:53:45.202Z,1022.53
2019-02-16T11:54:45.887Z,1022.52
2019-02-16T11:55:45.118Z,1022.52
2019-02-16T11:56:45.811Z,1022.51
2019-02-16T11:57:45.057Z,1022.53
2019-02-16T11:58:45.058Z,1022.50
2019-02-16T11:59:45.001Z,1022.48
2019-02-16T12:00:44.981Z,1022.46
2019-02-16T12:01:44.943Z,1022.44
2019-02-16T12:02:44.918Z,1022.40
2019-02-16T12:03:44.888Z,1022.45
2019-02-16T12:04:44.879Z,1022.46
2019-02-16T12:05:44.830Z,1022.44